Time;durP1;ratioP1;P1;durP2;ratioP2;P2;SDS_P1;SDS_P2;PMS_P1;PMS_P2;Temp;Humidity;BMP_temperature;BMP_pressure;BME280_temperature;BME280_humidity;BME280_pressure;Samples;Min_cycle;Max_cycle;Signal;HPM_P1;HPM_P2
2021/04/14 00:01:36;;;;;;;2.47;0.93;;;0.00;87.90;;;;;;4889228;29;20048;-86
2021/04/14 00:04:12;;;;;;;1.02;0.47;;;0.00;87.50;;;;;;4912966;29;20071;-84
2021/04/14 00:07:00;;;;;;;1.73;0.45;;;0.00;87.40;;;;;;4913366;29;20615;-83
2021/04/14 00:09:31;;;;;;;4.28;0.30;;;-3276.70;87.40;;;;;;4923859;29;20048;-85
2021/04/14 00:12:04;;;;;;;0.20;0.20;;;-3276.70;87.70;;;;;;4907692;29;20037;-83
2021/04/14 00:14:32;;;;;;;0.93;0.30;;;-3276.70;87.80;;;;;;4921775;29;20067;-83
2021/04/14 00:17:03;;;;;;;2.90;0.40;;;-3276.60;87.70;;;;;;4909608;29;20111;-86
2021/04/14 00:19:37;;;;;;;2.10;0.52;;;-3276.60;88.00;;;;;;4908001;29;20062;-83
2021/04/14 00:22:06;;;;;;;0.63;0.35;;;-3276.60;88.10;;;;;;4920076;29;20061;-83
2021/04/14 00:24:37;;;;;;;1.65;0.30;;;-3276.60;88.10;;;;;;4892030;29;20052;-84
2021/04/14 00:27:05;;;;;;;2.17;0.75;;;-3276.70;88.00;;;;;;4908437;29;20048;-82
2021/04/14 00:29:35;;;;;;;3.92;0.40;;;-3276.60;87.50;;;;;;4921354;29;20075;-86
2021/04/14 00:32:06;;;;;;;3.95;0.30;;;-3276.60;87.30;;;;;;4923949;29;20044;-84
2021/04/14 00:34:34;;;;;;;1.75;0.40;;;-3276.50;87.40;;;;;;4888552;29;20072;-85
2021/04/14 00:37:02;;;;;;;1.75;0.30;;;-3276.40;88.20;;;;;;4907035;29;20063;-83
2021/04/14 00:39:31;;;;;;;1.37;0.60;;;-3276.40;88.10;;;;;;4900893;29;21309;-85
2021/04/14 00:42:00;;;;;;;2.22;0.43;;;-3276.60;88.30;;;;;;4903163;29;20243;-83
2021/04/14 00:44:28;;;;;;;0.75;0.60;;;-3276.60;88.10;;;;;;4904508;29;20329;-85
2021/04/14 00:47:00;;;;;;;4.13;0.85;;;-3276.60;88.30;;;;;;4903559;29;20058;-84
2021/04/14 00:49:31;;;;;;;1.10;0.68;;;-3276.60;88.30;;;;;;4906840;29;20462;-84
2021/04/14 00:52:00;;;;;;;0.82;0.32;;;-3276.60;88.20;;;;;;4922424;29;20241;-84
2021/04/14 00:54:38;;;;;;;;;;;-3276.60;88.20;;;;;;4906736;29;20071;-82
2021/04/14 00:57:09;;;;;;;3.10;1.55;;;-3276.60;88.40;;;;;;4921239;29;19954;-83
2021/04/14 00:59:39;;;;;;;13.15;1.38;;;-3276.50;88.70;;;;;;4919579;29;20048;-84
2021/04/14 01:02:09;;;;;;;1.65;1.05;;;-3276.40;89.00;;;;;;4907037;29;20044;-84
2021/04/14 01:04:38;;;;;;;2.47;0.88;;;-3276.40;88.90;;;;;;4893861;29;20056;-86
2021/04/14 01:07:12;;;;;;;2.30;0.70;;;-3276.40;88.50;;;;;;4900024;29;20048;-82
2021/04/14 01:09:47;;;;;;;5.47;1.50;;;-3276.50;88.70;;;;;;4902238;29;20079;-85
2021/04/14 01:12:16;;;;;;;2.42;0.93;;;-3276.50;88.30;;;;;;4888981;29;20294;-86
2021/04/14 01:14:44;;;;;;;2.83;0.73;;;-3276.50;88.20;;;;;;4920499;29;20044;-84
2021/04/14 01:17:13;;;;;;;0.90;0.68;;;-3276.40;88.40;;;;;;4886034;29;20355;-84
2021/04/14 01:19:44;;;;;;;1.48;0.68;;;-3276.40;88.60;;;;;;4889732;29;20083;-85
2021/04/14 01:22:13;;;;;;;1.63;0.98;;;-3276.30;88.90;;;;;;4904222;29;20049;-84
2021/04/14 01:24:42;;;;;;;1.67;1.17;;;-3276.30;89.30;;;;;;4902784;29;20250;-82
2021/04/14 01:27:11;;;;;;;2.60;1.17;;;-3276.20;89.30;;;;;;4907317;29;20378;-85
2021/04/14 01:29:40;;;;;;;1.63;0.90;;;-3276.30;89.60;;;;;;4902080;29;20056;-84
2021/04/14 01:32:08;;;;;;;2.72;0.90;;;-3276.20;89.60;;;;;;4912074;29;20040;-85
2021/04/14 01:34:37;;;;;;;3.13;0.63;;;-3276.20;89.50;;;;;;4904338;29;20052;-83
2021/04/14 01:37:04;;;;;;;3.50;1.08;;;-3276.20;89.70;;;;;;4922431;29;20083;-84
2021/04/14 01:39:33;;;;;;;2.83;1.23;;;-3276.20;89.50;;;;;;4903851;29;20126;-85
2021/04/14 01:42:05;;;;;;;3.25;1.10;;;-3276.20;89.40;;;;;;4899989;29;20066;-85
2021/04/14 01:44:33;;;;;;;1.50;0.60;;;-3276.20;89.40;;;;;;4922019;29;20239;-83
2021/04/14 01:47:02;;;;;;;2.75;0.77;;;-3276.10;89.40;;;;;;4891622;29;20059;-84
2021/04/14 01:49:31;;;;;;;3.55;0.88;;;-3276.20;89.40;;;;;;4904854;29;20107;-84
2021/04/14 01:52:02;;;;;;;2.03;0.73;;;-3276.10;89.50;;;;;;4907639;29;20141;-84
2021/04/14 01:54:36;;;;;;;2.05;0.63;;;-3276.20;89.10;;;;;;4909511;29;20136;-83
2021/04/14 01:57:08;;;;;;;1.23;0.65;;;-3276.30;88.80;;;;;;4905387;29;20060;-85
2021/04/14 01:59:37;;;;;;;3.40;0.52;;;-3276.30;89.30;;;;;;4902623;29;20070;-86
2021/04/14 02:02:05;;;;;;;4.30;0.70;;;-3276.30;89.70;;;;;;4900178;29;20048;-83
2021/04/14 02:04:33;;;;;;;2.47;1.13;;;-3276.20;89.80;;;;;;4902169;29;20052;-85
2021/04/14 02:07:01;;;;;;;2.08;1.00;;;-3276.20;89.70;;;;;;4919848;29;20056;-84
2021/04/14 02:09:33;;;;;;;1.00;0.70;;;-3276.20;89.60;;;;;;4919405;29;20103;-83
2021/04/14 02:12:02;;;;;;;2.58;0.80;;;-3276.10;89.80;;;;;;4920088;29;20044;-84
2021/04/14 02:14:31;;;;;;;2.15;0.70;;;-3276.00;90.00;;;;;;4920564;29;20056;-86
2021/04/14 02:16:59;;;;;;;0.73;0.43;;;-3276.00;90.10;;;;;;4887921;29;20060;-85
2021/04/14 02:19:27;;;;;;;4.03;1.15;;;-3276.00;90.10;;;;;;4896069;29;20063;-85
2021/04/14 02:21:55;;;;;;;1.08;0.57;;;-3276.00;89.90;;;;;;4902477;29;20296;-83
2021/04/14 02:24:25;;;;;;;1.90;0.82;;;-3276.00;89.80;;;;;;4913825;29;20052;-84
2021/04/14 02:26:54;;;;;;;1.65;0.63;;;-3275.90;89.60;;;;;;4897447;29;20060;-85
2021/04/14 02:29:24;;;;;;;2.75;0.82;;;-3275.90;89.60;;;;;;4898202;29;20060;-83
2021/04/14 02:31:51;;;;;;;1.83;0.60;;;-3275.90;89.50;;;;;;4883942;29;20349;-84
2021/04/14 02:34:19;;;;;;;0.63;0.43;;;-3275.90;89.50;;;;;;4899071;29;20331;-84
2021/04/14 02:37:00;;;;;;;2.13;0.85;;;-3275.90;89.60;;;;;;4915669;29;20099;-84
2021/04/14 02:39:33;;;;;;;2.92;0.55;;;-3275.80;89.60;;;;;;4900562;29;20123;-83
2021/04/14 02:42:01;;;;;;;2.10;0.70;;;-3275.80;90.00;;;;;;4904522;29;20425;-83
2021/04/14 02:44:31;;;;;;;1.30;0.52;;;-3275.80;90.10;;;;;;4919841;29;20060;-85
2021/04/14 02:47:00;;;;;;;8.48;1.48;;;-3275.90;89.80;;;;;;4904431;29;20063;-85
2021/04/14 02:49:33;;;;;;;1.85;0.75;;;-3275.90;89.30;;;;;;4904431;29;20059;-86
2021/04/14 02:52:20;;;;;;;0.98;0.73;;;-3275.90;89.10;;;;;;4903971;29;20045;-87
2021/04/14 02:54:48;;;;;;;4.15;1.02;;;-3275.90;89.10;;;;;;4917324;29;20051;-83
2021/04/14 02:57:17;;;;;;;2.08;0.93;;;-3275.90;89.50;;;;;;4901149;29;21581;-85
2021/04/14 02:59:46;;;;;;;1.85;0.80;;;-3275.80;89.60;;;;;;4917291;29;20090;-83
2021/04/14 03:02:15;;;;;;;2.00;0.60;;;-3275.80;89.70;;;;;;4897502;29;20377;-85
2021/04/14 03:04:44;;;;;;;1.13;0.60;;;-3275.80;90.10;;;;;;4916831;29;20058;-85
2021/04/14 03:07:12;;;;;;;2.85;0.88;;;-3275.80;89.90;;;;;;4901036;29;20036;-86
2021/04/14 03:09:39;;;;;;;3.10;2.03;;;-3275.80;89.70;;;;;;4905877;29;20343;-83
2021/04/14 03:12:12;;;;;;;3.50;1.73;;;-3275.80;89.60;;;;;;4902180;29;20076;-86
2021/04/14 03:14:40;;;;;;;;;;;-3275.70;89.60;;;;;;4914841;29;20040;-85
2021/04/14 03:17:09;;;;;;;0.70;0.60;;;-3275.70;89.70;;;;;;4885036;29;20222;-85
2021/04/14 03:19:37;;;;;;;2.15;0.82;;;-3275.70;89.50;;;;;;4902403;29;20084;-83
2021/04/14 03:22:07;;;;;;;0.73;0.45;;;-3275.60;89.70;;;;;;4886610;29;20060;-86
2021/04/14 03:24:36;;;;;;;1.92;0.85;;;-3275.60;89.80;;;;;;4911859;29;20060;-86
2021/04/14 03:27:04;;;;;;;4.15;0.77;;;-3275.60;89.80;;;;;;4902990;29;20060;-82
2021/04/14 03:29:33;;;;;;;2.03;0.70;;;-3275.60;89.90;;;;;;4904134;29;20044;-85
2021/04/14 03:32:02;;;;;;;3.33;1.35;;;-3275.60;89.70;;;;;;4886807;29;20094;-85
2021/04/14 03:34:30;;;;;;;1.25;0.45;;;-3275.60;89.50;;;;;;4917898;29;20063;-83
2021/04/14 03:36:59;;;;;;;1.50;0.77;;;-3275.50;89.70;;;;;;4904865;29;20228;-85
2021/04/14 03:39:27;;;;;;;1.08;0.70;;;-3275.50;89.80;;;;;;4898407;29;20107;-84
2021/04/14 03:41:54;;;;;;;3.90;0.77;;;-3275.50;90.00;;;;;;4886254;29;20327;-85
2021/04/14 03:44:24;;;;;;;0.70;0.50;;;-3275.50;90.10;;;;;;4904108;29;20139;-85
2021/04/14 03:46:54;;;;;;;2.93;1.07;;;-3275.50;90.10;;;;;;4918142;29;20398;-86
2021/04/14 03:49:25;;;;;;;1.65;1.02;;;-3275.60;90.00;;;;;;4918302;29;20061;-85
2021/04/14 03:51:53;;;;;;;3.88;1.48;;;-3275.60;89.50;;;;;;4901012;29;20127;-85
2021/04/14 03:54:36;;;;;;;3.63;1.83;;;-3275.60;89.70;;;;;;4902611;29;20044;-83
2021/04/14 03:57:04;;;;;;;2.13;0.98;;;-3275.60;90.20;;;;;;4889795;29;20352;-86
2021/04/14 03:59:36;;;;;;;1.65;0.88;;;-3275.60;90.20;;;;;;4904047;29;20064;-86
2021/04/14 04:02:06;;;;;;;4.43;1.02;;;-3275.60;90.00;;;;;;4898992;29;20060;-85
2021/04/14 04:04:36;;;;;;;2.88;1.23;;;-3275.60;90.20;;;;;;4905828;29;20260;-87
2021/04/14 04:07:05;;;;;;;0.75;0.63;;;-3275.50;90.50;;;;;;4900686;29;20089;-87
2021/04/14 04:09:37;;;;;;;1.58;1.25;;;-3275.50;90.40;;;;;;4857393;29;20076;-86
2021/04/14 04:12:08;;;;;;;3.58;1.48;;;-3275.50;90.30;;;;;;4891514;29;20083;-83
2021/04/14 04:14:46;;;;;;;1.77;0.88;;;-3275.50;90.50;;;;;;4925665;29;20941;-84
2021/04/14 04:17:14;;;;;;;2.65;0.88;;;-3275.40;90.50;;;;;;4925155;29;20336;-82
2021/04/14 04:19:43;;;;;;;2.42;0.70;;;-3275.40;90.30;;;;;;4921314;29;20060;-85
2021/04/14 04:22:13;;;;;;;0.57;0.40;;;-3275.30;90.10;;;;;;4910542;29;20059;-86
2021/04/14 04:24:43;;;;;;;11.80;1.97;;;-3275.40;90.30;;;;;;4923279;29;20063;-86
2021/04/14 04:27:13;;;;;;;4.75;1.63;;;-3275.30;90.40;;;;;;4893496;29;20063;-85
2021/04/14 04:29:41;;;;;;;4.55;1.50;;;-3275.40;90.30;;;;;;4917596;29;20063;-84
2021/04/14 04:32:11;;;;;;;2.33;0.88;;;-3275.40;90.50;;;;;;4901524;29;20058;-84
2021/04/14 04:34:43;;;;;;;1.30;0.77;;;-3275.40;90.50;;;;;;4888447;29;20062;-83
2021/04/14 04:37:11;;;;;;;2.40;1.10;;;-3275.40;90.50;;;;;;4917655;29;20098;-85
2021/04/14 04:39:41;;;;;;;3.45;0.98;;;-3275.40;90.20;;;;;;4914420;29;20424;-86
2021/04/14 04:42:11;;;;;;;3.42;1.40;;;-3275.40;90.00;;;;;;4918253;29;20048;-84
2021/04/14 04:44:39;;;;;;;5.53;2.00;;;-3275.50;90.00;;;;;;4886150;29;20267;-83
2021/04/14 04:47:07;;;;;;;2.88;1.13;;;-3275.50;89.70;;;;;;4902493;29;20059;-84
2021/04/14 04:49:35;;;;;;;4.15;1.30;;;-3275.50;89.70;;;;;;4901500;29;20103;-84
2021/04/14 04:52:07;;;;;;;2.58;1.35;;;-3275.50;89.60;;;;;;4871676;29;20239;-83
2021/04/14 04:54:35;;;;;;;1.33;0.80;;;-3275.50;89.70;;;;;;4902869;29;20063;-85
2021/04/14 04:57:06;;;;;;;5.30;1.50;;;-3275.50;89.50;;;;;;4881605;29;20452;-84
2021/04/14 04:59:34;;;;;;;1.80;0.85;;;-3275.50;89.60;;;;;;4901891;29;20080;-85
2021/04/14 05:02:02;;;;;;;2.88;1.33;;;-3275.40;90.10;;;;;;4899467;29;20383;-86
2021/04/14 05:04:31;;;;;;;3.05;1.10;;;-3275.40;89.60;;;;;;4898472;29;20036;-84
2021/04/14 05:07:00;;;;;;;3.55;1.42;;;-3275.40;90.00;;;;;;4915106;29;20060;-85
2021/04/14 05:09:31;;;;;;;2.28;1.17;;;-3275.40;89.90;;;;;;4897750;29;20059;-85
2021/04/14 05:12:16;;;;;;;1.52;0.42;;;-3275.40;89.70;;;;;;1133878;29;10022725;-83
2021/04/14 05:14:46;;;;;;;4.88;0.80;;;-3275.40;90.20;;;;;;4559143;29;10001308;-82
2021/04/14 05:17:14;;;;;;;1.67;0.88;;;-3275.50;90.10;;;;;;4882368;29;20075;-83
2021/04/14 05:19:43;;;;;;;1.27;0.75;;;-3275.40;89.90;;;;;;4908096;29;20051;-83
2021/04/14 05:22:15;;;;;;;6.30;0.80;;;-3275.50;90.00;;;;;;4884122;29;20052;-85
2021/04/14 05:24:45;;;;;;;3.42;0.73;;;-3275.60;90.00;;;;;;4899938;29;20052;-84
2021/04/14 05:27:15;;;;;;;3.10;1.40;;;-3275.60;90.00;;;;;;4900430;29;20060;-85
2021/04/14 05:29:45;;;;;;;1.10;0.73;;;-3275.70;89.90;;;;;;4922636;29;20068;-84
2021/04/14 05:32:13;;;;;;;1.15;0.80;;;-3275.80;89.70;;;;;;4903408;29;20123;-86
2021/04/14 05:34:43;;;;;;;2.70;1.63;;;-3275.90;89.00;;;;;;4902532;29;20059;-85
2021/04/14 05:37:13;;;;;;;4.72;1.52;;;-3276.00;88.50;;;;;;4881065;29;20064;-88
2021/04/14 05:39:41;;;;;;;2.13;1.27;;;-3276.00;88.40;;;;;;4884227;29;20115;-86
2021/04/14 05:42:16;;;;;;;2.47;0.98;;;-3276.00;88.50;;;;;;4913821;29;20086;-85
2021/04/14 05:44:44;;;;;;;1.77;1.08;;;-3276.10;88.50;;;;;;4891391;29;20056;-84
2021/04/14 05:47:20;;;;;;;2.95;1.58;;;-3276.10;88.40;;;;;;4900759;29;20064;-83
2021/04/14 05:49:49;;;;;;;6.18;3.05;;;-3276.10;88.70;;;;;;4914999;29;20197;-83
2021/04/14 05:52:17;;;;;;;6.85;1.77;;;-3276.10;88.80;;;;;;4898219;29;20040;-84
2021/04/14 05:54:47;;;;;;;6.43;2.47;;;-3276.10;88.90;;;;;;4918988;29;20044;-85
2021/04/14 05:57:17;;;;;;;2.00;1.00;;;-3276.20;88.90;;;;;;4899898;29;20068;-83
2021/04/14 05:59:44;;;;;;;3.30;1.42;;;-3276.30;88.60;;;;;;4896536;29;20478;-84
2021/04/14 06:02:14;;;;;;;6.25;2.30;;;-3276.30;88.60;;;;;;4897243;29;20062;-86
2021/04/14 06:04:43;;;;;;;4.30;1.42;;;-3276.40;88.40;;;;;;4901525;29;20044;-85
2021/04/14 06:07:10;;;;;;;7.43;2.22;;;-3276.40;88.30;;;;;;4882337;29;20048;-85
2021/04/14 06:09:38;;;;;;;2.90;1.60;;;-3276.50;88.00;;;;;;4897972;29;20063;-85
2021/04/14 06:12:18;;;;;;;5.22;1.33;;;-3276.60;88.20;;;;;;4920453;29;20316;-84
2021/04/14 06:14:47;;;;;;;1.95;0.80;;;-3276.60;88.00;;;;;;4921265;29;20063;-85
2021/04/14 06:17:14;;;;;;;2.35;1.15;;;-3276.70;88.00;;;;;;4903499;29;20052;-83
2021/04/14 06:19:43;;;;;;;7.55;1.67;;;0.00;87.90;;;;;;4903654;29;20048;-86
2021/04/14 06:22:13;;;;;;;2.70;1.23;;;0.00;87.90;;;;;;4905425;29;20064;-84
2021/04/14 06:24:42;;;;;;;5.40;1.77;;;0.10;87.70;;;;;;4920071;29;20060;-81
2021/04/14 06:27:26;;;;;;;6.38;1.75;;;0.20;87.40;;;;;;4903889;29;20055;-84
2021/04/14 06:29:56;;;;;;;5.57;2.97;;;0.30;87.10;;;;;;4899157;29;20066;-86
2021/04/14 06:32:24;;;;;;;7.63;1.85;;;0.40;86.80;;;;;;4920523;29;20306;-84
2021/04/14 06:34:53;;;;;;;5.38;1.42;;;0.50;86.50;;;;;;4910160;29;20684;-84
2021/04/14 06:37:21;;;;;;;5.95;1.40;;;0.70;86.20;;;;;;4914030;29;20160;-83
2021/04/14 06:40:02;;;;;;;2.30;1.15;;;0.70;86.00;;;;;;4912537;29;20267;-84
2021/04/14 06:42:46;;;;;;;2.47;1.50;;;0.80;85.80;;;;;;4903474;29;20056;-85
2021/04/14 06:45:19;;;;;;;3.33;1.55;;;0.90;85.30;;;;;;4913153;29;20063;-85
2021/04/14 06:48:08;;;;;;;4.25;1.40;;;1.00;85.20;;;;;;4898751;29;20387;-85
2021/04/14 06:50:41;;;;;;;2.78;1.42;;;1.10;84.90;;;;;;4899331;29;20288;-86
2021/04/14 06:53:28;;;;;;;4.97;2.05;;;1.10;84.60;;;;;;4896847;29;20232;-85
2021/04/14 06:56:01;;;;;;;6.35;1.83;;;1.20;84.60;;;;;;4913348;29;20119;-84
2021/04/14 06:58:37;;;;;;;5.15;1.75;;;1.30;84.20;;;;;;4917026;29;20056;-83
2021/04/14 07:01:11;;;;;;;2.47;1.25;;;1.40;84.00;;;;;;4898416;29;20434;-85
2021/04/14 07:03:50;;;;;;;2.95;1.52;;;1.50;83.50;;;;;;4887627;29;20052;-83
2021/04/14 07:06:23;;;;;;;3.47;1.65;;;1.60;83.20;;;;;;4885898;29;20048;-84
2021/04/14 07:09:03;;;;;;;18.77;2.58;;;1.70;83.20;;;;;;4898201;29;20048;-84
2021/04/14 07:11:32;;;;;;;10.75;1.52;;;1.70;82.40;;;;;;4899396;29;20079;-84
2021/04/14 07:14:02;;;;;;;7.90;2.72;;;1.80;82.60;;;;;;4885555;29;20111;-82
2021/04/14 07:16:54;;;;;;;5.97;2.08;;;2.00;82.30;;;;;;4901135;29;20060;-86
2021/04/14 07:19:32;;;;;;;3.08;1.63;;;2.20;82.10;;;;;;4893551;29;20052;-87
2021/04/14 07:22:06;;;;;;;4.95;2.00;;;2.30;81.70;;;;;;4879321;29;20056;-85
2021/04/14 07:24:38;;;;;;;4.47;1.40;;;2.40;80.50;;;;;;4901027;29;20111;-82
2021/04/14 07:27:21;;;;;;;6.57;2.53;;;2.60;80.90;;;;;;4899370;29;20061;-84
2021/04/14 07:29:53;;;;;;;6.28;1.80;;;2.80;80.80;;;;;;4883565;29;20227;-84
2021/04/14 07:32:27;;;;;;;3.60;1.80;;;3.00;80.00;;;;;;4905601;29;20164;-81
2021/04/14 07:35:15;;;;;;;3.28;1.30;;;3.30;79.40;;;;;;4903705;29;20048;-85
2021/04/14 07:37:53;;;;;;;3.25;1.38;;;3.60;78.70;;;;;;4896790;29;20052;-82
2021/04/14 07:40:29;;;;;;;4.20;1.88;;;3.80;77.90;;;;;;4895891;29;20064;-84
2021/04/14 07:43:12;;;;;;;3.47;1.63;;;3.80;77.10;;;;;;4885631;29;20119;-84
2021/04/14 07:45:44;;;;;;;3.17;1.60;;;4.00;76.00;;;;;;4870128;29;20079;-86
2021/04/14 07:48:20;;;;;;;3.55;1.20;;;4.10;74.70;;;;;;4898609;29;20056;-83
2021/04/14 07:50:53;;;;;;;3.13;1.27;;;4.10;75.80;;;;;;4885799;29;20068;-84
2021/04/14 07:53:25;;;;;;;3.63;1.60;;;4.20;75.50;;;;;;4914664;29;20051;-84
2021/04/14 07:56:07;;;;;;;3.47;1.33;;;4.40;74.60;;;;;;4863690;29;20086;-83
2021/04/14 07:58:38;;;;;;;4.13;1.40;;;4.50;74.60;;;;;;4896798;29;20063;-85
2021/04/14 08:01:17;;;;;;;3.72;1.55;;;4.60;73.80;;;;;;4895132;29;20068;-84
2021/04/14 08:03:49;;;;;;;5.33;1.37;;;4.60;72.50;;;;;;4897148;29;20068;-84
2021/04/14 08:06:25;;;;;;;2.50;1.25;;;4.60;72.50;;;;;;4900344;29;20561;-83
2021/04/14 08:08:54;;;;;;;3.50;1.20;;;4.80;71.80;;;;;;4897014;29;21174;-85
2021/04/14 08:11:29;;;;;;;8.15;2.15;;;5.10;71.10;;;;;;4899768;29;20064;-85
2021/04/14 08:14:12;;;;;;;2.92;1.30;;;5.30;70.20;;;;;;4905002;29;20071;-85
2021/04/14 08:16:42;;;;;;;4.35;1.33;;;5.50;69.70;;;;;;4908358;29;20064;-85
2021/04/14 08:19:30;;;;;;;4.30;1.48;;;5.50;68.70;;;;;;4899761;29;20071;-85
2021/04/14 08:22:01;;;;;;;7.43;1.33;;;5.70;69.60;;;;;;4912637;29;20244;-85
2021/04/14 08:24:33;;;;;;;2.90;1.08;;;6.10;67.00;;;;;;4878123;29;20049;-85
2021/04/14 08:27:17;;;;;;;3.00;1.25;;;6.60;65.40;;;;;;4880741;29;20044;-84
2021/04/14 08:29:47;;;;;;;4.97;1.92;;;6.90;63.60;;;;;;4883105;29;20347;-85
2021/04/14 08:32:17;;;;;;;5.28;2.15;;;7.20;62.00;;;;;;4890400;29;20058;-82
2021/04/14 08:34:56;;;;;;;2.50;1.10;;;7.10;60.10;;;;;;4881933;29;20073;-84
2021/04/14 08:37:28;;;;;;;4.32;1.00;;;7.30;59.10;;;;;;4896633;29;20048;-84
2021/04/14 08:39:59;;;;;;;4.60;2.20;;;7.40;57.00;;;;;;4897740;29;20057;-84
2021/04/14 08:42:31;;;;;;;6.70;1.90;;;7.60;57.70;;;;;;4898870;29;20234;-84
2021/04/14 08:45:13;;;;;;;4.15;1.23;;;7.90;56.20;;;;;;4902241;29;20381;-84
2021/04/14 08:47:51;;;;;;;2.55;1.10;;;8.20;55.10;;;;;;4916721;29;20330;-83
2021/04/14 08:50:29;;;;;;;5.70;2.67;;;8.30;54.10;;;;;;4903133;29;20080;-84
2021/04/14 08:53:02;;;;;;;4.80;1.13;;;8.40;54.70;;;;;;4910611;29;20115;-83
2021/04/14 08:55:35;;;;;;;3.90;1.17;;;8.60;52.90;;;;;;4895336;29;20083;-85
2021/04/14 08:58:04;;;;;;;0.50;0.30;;;8.60;53.40;;;;;;4918154;29;20256;-85
2021/04/14 09:00:32;;;;;;;3.45;1.25;;;8.60;51.80;;;;;;4915618;29;20071;-85
2021/04/14 09:03:07;;;;;;;;;;;8.70;51.80;;;;;;4913853;29;20107;-85
2021/04/14 09:05:38;;;;;;;1.33;0.55;;;8.90;51.20;;;;;;4910272;29;19930;-84
2021/04/14 09:08:12;;;;;;;2.53;0.38;;;9.00;48.70;;;;;;4882282;29;20072;-84
2021/04/14 09:10:50;;;;;;;5.07;0.80;;;8.70;49.50;;;;;;4896500;29;20350;-87
2021/04/14 09:13:29;;;;;;;4.80;0.65;;;8.60;47.90;;;;;;4915998;29;20098;-86
2021/04/14 09:15:59;;;;;;;2.20;0.70;;;8.50;47.00;;;;;;4915271;29;20128;-84
2021/04/14 09:18:31;;;;;;;3.03;1.33;;;8.70;48.90;;;;;;4896797;29;20060;-86
2021/04/14 09:21:09;;;;;;;2.13;0.30;;;8.60;48.30;;;;;;4910755;29;20112;-84
2021/04/14 09:23:39;;;;;;;1.35;0.40;;;8.60;46.60;;;;;;4902970;29;20130;-85
2021/04/14 09:26:17;;;;;;;0.65;0.20;;;8.50;47.20;;;;;;4885221;29;20056;-82
2021/04/14 09:28:57;;;;;;;3.95;0.82;;;8.40;46.60;;;;;;4922132;29;20113;-84
2021/04/14 09:31:44;;;;;;;2.80;0.40;;;8.30;47.10;;;;;;4905560;29;20059;-83
2021/04/14 09:34:30;;;;;;;5.10;0.60;;;8.20;46.50;;;;;;4891780;29;20076;-83
2021/04/14 09:37:07;;;;;;;2.33;0.40;;;8.10;47.40;;;;;;4924091;29;20394;-86
2021/04/14 09:39:37;;;;;;;2.95;0.70;;;8.40;47.50;;;;;;4918555;29;20769;-84
2021/04/14 09:42:15;;;;;;;;;;;8.90;45.80;;;;;;4904332;29;20055;-87
2021/04/14 09:44:45;;;;;;;1.08;0.40;;;9.10;44.60;;;;;;4904944;29;19970;-85
2021/04/14 09:47:33;;;;;;;0.55;0.30;;;9.30;45.20;;;;;;4921741;29;20044;-86
2021/04/14 09:50:22;;;;;;;3.80;0.52;;;9.80;43.50;;;;;;4889187;29;20067;-85
2021/04/14 09:52:55;;;;;;;2.72;0.73;;;10.00;42.30;;;;;;4923464;29;20229;-83
2021/04/14 09:55:31;;;;;;;5.88;0.70;;;10.10;42.40;;;;;;4920438;29;20067;-86
2021/04/14 09:58:07;;;;;;;3.00;0.90;;;10.00;42.40;;;;;;4907418;29;20118;-83
2021/04/14 10:00:42;;;;;;;0.90;0.50;;;10.20;42.00;;;;;;4902237;29;20056;-85
2021/04/14 10:03:28;;;;;;;3.70;0.73;;;10.50;41.20;;;;;;4903388;29;20052;-85
2021/04/14 10:06:07;;;;;;;1.45;0.55;;;11.10;41.00;;;;;;4919969;29;20056;-87
2021/04/14 10:08:44;;;;;;;4.32;0.47;;;11.90;37.60;;;;;;4922491;29;20127;-82
2021/04/14 10:11:29;;;;;;;1.27;0.50;;;12.40;36.50;;;;;;4919705;29;20047;-84
2021/04/14 10:14:10;;;;;;;5.57;0.57;;;11.70;35.70;;;;;;4908162;29;20055;-85
2021/04/14 10:16:40;;;;;;;0.90;0.40;;;11.30;36.40;;;;;;4924629;29;20056;-87
2021/04/14 10:19:09;;;;;;;4.38;0.70;;;11.30;37.20;;;;;;4920758;29;20063;-84
2021/04/14 10:21:41;;;;;;;2.60;0.70;;;11.30;36.90;;;;;;4890530;29;20090;-83
2021/04/14 10:24:18;;;;;;;3.85;0.60;;;11.10;37.90;;;;;;4905106;29;20052;-84
2021/04/14 10:26:52;;;;;;;3.15;0.60;;;10.70;38.40;;;;;;4904758;29;20052;-86
2021/04/14 10:29:26;;;;;;;0.40;0.20;;;10.70;38.20;;;;;;4919225;29;20060;-85
2021/04/14 10:31:55;;;;;;;3.10;0.95;;;11.20;36.20;;;;;;4921083;29;20040;-85
2021/04/14 10:34:29;;;;;;;3.43;0.70;;;11.10;36.70;;;;;;4903938;29;20095;-83
2021/04/14 10:36:59;;;;;;;1.38;0.55;;;11.80;36.50;;;;;;4903896;29;20051;-85
2021/04/14 10:39:30;;;;;;;1.48;0.52;;;14.40;32.00;;;;;;4906175;29;20072;-84
2021/04/14 10:42:00;;;;;;;1.65;0.68;;;13.30;32.50;;;;;;4910929;29;20064;-84
2021/04/14 10:44:38;;;;;;;1.87;0.60;;;12.20;32.80;;;;;;4914831;29;20075;-84
2021/04/14 10:47:14;;;;;;;3.88;0.50;;;11.40;34.90;;;;;;4902830;29;20356;-84
2021/04/14 10:49:42;;;;;;;3.22;0.60;;;10.80;36.40;;;;;;4900364;29;20048;-86
2021/04/14 10:52:20;;;;;;;5.25;0.85;;;10.40;39.20;;;;;;4918903;29;20079;-85
2021/04/14 10:54:54;;;;;;;5.78;0.68;;;9.90;39.80;;;;;;4901906;29;20059;-85
2021/04/14 10:57:27;;;;;;;2.28;0.60;;;9.70;40.80;;;;;;4901914;29;20064;-85
2021/04/14 11:00:07;;;;;;;2.00;0.70;;;9.70;41.30;;;;;;4903832;29;20058;-88
2021/04/14 11:02:40;;;;;;;2.20;0.55;;;9.80;40.80;;;;;;4921364;29;20059;-83
2021/04/14 11:05:15;;;;;;;4.68;0.95;;;10.00;40.80;;;;;;4919624;29;20063;-84
2021/04/14 11:07:44;;;;;;;5.10;0.68;;;9.90;42.00;;;;;;4902992;29;20139;-83
2021/04/14 11:10:20;;;;;;;5.90;1.40;;;9.80;40.70;;;;;;4906797;29;20051;-85
2021/04/14 11:12:54;;;;;;;2.60;0.50;;;10.00;41.00;;;;;;4905783;29;20064;-83
2021/04/14 11:15:28;;;;;;;2.08;1.65;;;10.20;41.00;;;;;;4917296;29;20056;-82
2021/04/14 11:17:58;;;;;;;1.95;0.80;;;10.20;41.90;;;;;;4910349;29;20048;-83
2021/04/14 11:20:41;;;;;;;1.93;0.77;;;10.20;40.90;;;;;;4927894;29;20083;-84
2021/04/14 11:23:19;;;;;;;1.38;0.52;;;10.00;41.50;;;;;;4905777;29;20307;-82
2021/04/14 11:25:49;;;;;;;2.00;0.70;;;9.70;42.30;;;;;;4900265;29;20067;-84
2021/04/14 11:28:21;;;;;;;2.78;0.70;;;9.70;43.20;;;;;;4893790;29;20050;-84
2021/04/14 11:30:54;;;;;;;1.80;0.38;;;9.60;44.80;;;;;;4927072;29;20053;-83
2021/04/14 11:33:39;;;;;;;2.03;0.82;;;9.70;44.90;;;;;;4913838;29;20497;-84
2021/04/14 11:36:38;;;;;;;5.43;0.95;;;9.80;45.10;;;;;;4911849;29;20351;-85
2021/04/14 11:39:19;;;;;;;1.63;0.55;;;11.50;41.60;;;;;;4876578;29;20244;-82
2021/04/14 11:41:52;;;;;;;2.97;0.68;;;14.20;37.30;;;;;;4903094;29;20374;-85
2021/04/14 11:44:22;;;;;;;3.42;0.50;;;14.60;34.70;;;;;;4907056;29;20039;-84
2021/04/14 11:46:59;;;;;;;5.53;0.60;;;14.30;34.80;;;;;;4921447;29;20049;-84
2021/04/14 11:49:33;;;;;;;5.68;0.98;;;16.20;32.40;;;;;;4923045;29;20080;-83
2021/04/14 11:52:13;;;;;;;4.50;0.68;;;17.10;30.20;;;;;;4909429;29;20060;-84
2021/04/14 11:54:44;;;;;;;1.60;0.52;;;19.00;27.20;;;;;;4915480;29;20048;-84
2021/04/14 11:57:24;;;;;;;2.67;0.82;;;20.50;26.20;;;;;;4921236;29;20064;-84
2021/04/14 12:00:12;;;;;;;2.17;0.40;;;20.90;25.90;;;;;;4893191;29;20056;-85
2021/04/14 12:02:49;;;;;;;1.38;0.50;;;21.60;23.70;;;;;;4922942;29;20040;-83
2021/04/14 12:05:19;;;;;;;4.03;1.02;;;22.60;20.90;;;;;;4906429;29;20064;-87
2021/04/14 12:07:48;;;;;;;1.17;0.60;;;24.00;20.20;;;;;;4919848;29;20048;-83
2021/04/14 12:10:16;;;;;;;0.70;0.40;;;24.00;19.60;;;;;;4909773;29;20052;-84
2021/04/14 12:12:49;;;;;;;1.80;0.38;;;23.20;19.60;;;;;;4921438;29;20121;-85
2021/04/14 12:15:19;;;;;;;0.85;0.50;;;22.50;19.20;;;;;;4901484;29;20060;-85
2021/04/14 12:17:56;;;;;;;2.67;0.60;;;21.80;20.90;;;;;;4923923;29;20083;-84
2021/04/14 12:20:25;;;;;;;0.68;0.35;;;20.30;21.00;;;;;;4905723;29;20062;-85
2021/04/14 12:23:12;;;;;;;2.15;0.50;;;20.70;20.90;;;;;;4905404;29;20059;-83
2021/04/14 12:25:41;;;;;;;1.00;0.35;;;20.10;20.50;;;;;;4907940;29;20063;-84
2021/04/14 12:28:28;;;;;;;2.60;0.68;;;20.80;20.20;;;;;;4915200;29;20056;-84
2021/04/14 12:30:58;;;;;;;1.58;0.40;;;20.20;20.00;;;;;;4911314;29;20083;-83
2021/04/14 12:33:30;;;;;;;2.33;0.40;;;20.80;20.20;;;;;;4924046;29;20044;-83
2021/04/14 12:35:59;;;;;;;1.13;0.50;;;21.20;19.60;;;;;;4888902;29;20056;-83
2021/04/14 12:38:37;;;;;;;1.60;0.70;;;18.10;22.90;;;;;;4902929;29;20079;-84
2021/04/14 12:41:18;;;;;;;1.67;0.32;;;15.30;27.30;;;;;;4887288;29;20063;-83
2021/04/14 12:43:53;;;;;;;0.75;0.40;;;15.00;27.50;;;;;;4913765;29;20050;-84
2021/04/14 12:46:23;;;;;;;2.60;0.70;;;14.10;30.50;;;;;;4900512;29;20162;-84
2021/04/14 12:49:11;;;;;;;;;;;12.70;34.60;;;;;;4915028;29;20151;-88
2021/04/14 12:51:48;;;;;;;2.97;0.50;;;11.80;37.00;;;;;;4912569;29;19978;-82
2021/04/14 12:54:39;;;;;;;1.55;0.45;;;10.90;40.20;;;;;;4906421;29;20079;-85
2021/04/14 12:57:20;;;;;;;1.55;0.40;;;10.20;42.20;;;;;;4905091;29;20083;-83
2021/04/14 12:59:54;;;;;;;0.43;0.25;;;9.60;43.90;;;;;;4892076;29;20056;-85
2021/04/14 13:02:26;;;;;;;0.63;0.30;;;9.40;45.80;;;;;;4918409;29;20095;-85
2021/04/14 13:05:04;;;;;;;0.70;0.22;;;9.20;44.30;;;;;;4895140;29;20394;-84